sensor_id;sensor_type;location;lat;lon;timestamp;P1;durP1;ratioP1;P2;durP2;ratioP2
65896;SDS011;52677;50.898;10.854;2024-02-28T00:01:53;28.50;;;13.30;;
65896;SDS011;52677;50.898;10.854;2024-02-28T00:03:53;29.05;;;13.32;;
65896;SDS011;52677;50.898;10.854;2024-02-28T00:05:53;28.38;;;12.57;;
65896;SDS011;52677;50.898;10.854;2024-02-28T00:07:54;31.00;;;13.75;;
65896;SDS011;52677;50.898;10.854;2024-02-28T00:09:54;27.50;;;12.88;;
65896;SDS011;52677;50.898;10.854;2024-02-28T00:11:57;29.90;;;12.88;;
65896;SDS011;52677;50.898;10.854;2024-02-28T00:13:57;32.30;;;13.52;;
65896;SDS011;52677;50.898;10.854;2024-02-28T00:16:00;26.58;;;13.27;;
65896;SDS011;52677;50.898;10.854;2024-02-28T00:18:00;26.05;;;12.80;;
65896;SDS011;52677;50.898;10.854;2024-02-28T00:20:00;27.80;;;12.73;;
65896;SDS011;52677;50.898;10.854;2024-02-28T00:22:01;29.13;;;13.95;;
65896;SDS011;52677;50.898;10.854;2024-02-28T00:24:01;27.17;;;14.55;;
65896;SDS011;52677;50.898;10.854;2024-02-28T00:26:02;27.30;;;12.85;;
65896;SDS011;52677;50.898;10.854;2024-02-28T00:28:02;29.23;;;12.85;;
65896;SDS011;52677;50.898;10.854;2024-02-28T00:30:03;28.50;;;12.85;;
65896;SDS011;52677;50.898;10.854;2024-02-28T00:32:07;34.25;;;14.68;;
65896;SDS011;52677;50.898;10.854;2024-02-28T00:34:07;34.85;;;14.55;;
65896;SDS011;52677;50.898;10.854;2024-02-28T00:36:08;31.38;;;14.93;;
65896;SDS011;52677;50.898;10.854;2024-02-28T00:38:09;33.08;;;14.45;;
65896;SDS011;52677;50.898;10.854;2024-02-28T00:40:09;33.45;;;12.93;;
65896;SDS011;52677;50.898;10.854;2024-02-28T00:42:10;31.48;;;13.75;;
65896;SDS011;52677;50.898;10.854;2024-02-28T00:44:10;30.80;;;13.93;;
65896;SDS011;52677;50.898;10.854;2024-02-28T00:46:10;27.55;;;12.85;;
65896;SDS011;52677;50.898;10.854;2024-02-28T00:48:12;25.70;;;11.95;;
65896;SDS011;52677;50.898;10.854;2024-02-28T00:50:12;28.98;;;14.25;;
65896;SDS011;52677;50.898;10.854;2024-02-28T00:52:12;32.65;;;13.95;;
65896;SDS011;52677;50.898;10.854;2024-02-28T00:54:13;28.80;;;12.90;;
65896;SDS011;52677;50.898;10.854;2024-02-28T00:56:13;26.83;;;12.25;;
65896;SDS011;52677;50.898;10.854;2024-02-28T00:58:14;25.48;;;12.45;;
65896;SDS011;52677;50.898;10.854;2024-02-28T01:00:15;26.63;;;13.35;;
65896;SDS011;52677;50.898;10.854;2024-02-28T01:02:15;27.98;;;12.98;;
65896;SDS011;52677;50.898;10.854;2024-02-28T01:04:16;30.65;;;13.65;;
65896;SDS011;52677;50.898;10.854;2024-02-28T01:06:16;30.48;;;13.98;;
65896;SDS011;52677;50.898;10.854;2024-02-28T01:08:17;27.42;;;13.85;;
65896;SDS011;52677;50.898;10.854;2024-02-28T01:10:17;30.08;;;13.35;;
65896;SDS011;52677;50.898;10.854;2024-02-28T01:12:18;33.75;;;14.73;;
65896;SDS011;52677;50.898;10.854;2024-02-28T01:14:18;30.50;;;13.73;;
65896;SDS011;52677;50.898;10.854;2024-02-28T01:16:18;30.35;;;13.10;;
65896;SDS011;52677;50.898;10.854;2024-02-28T01:18:19;29.20;;;13.18;;
65896;SDS011;52677;50.898;10.854;2024-02-28T01:20:19;30.88;;;13.85;;
65896;SDS011;52677;50.898;10.854;2024-02-28T01:22:19;34.38;;;15.10;;
65896;SDS011;52677;50.898;10.854;2024-02-28T01:24:20;31.02;;;14.40;;
65896;SDS011;52677;50.898;10.854;2024-02-28T01:26:21;33.45;;;14.68;;
65896;SDS011;52677;50.898;10.854;2024-02-28T01:28:22;33.85;;;14.55;;
65896;SDS011;52677;50.898;10.854;2024-02-28T01:30:22;36.50;;;14.82;;
65896;SDS011;52677;50.898;10.854;2024-02-28T01:32:22;37.72;;;15.50;;
65896;SDS011;52677;50.898;10.854;2024-02-28T01:34:23;33.22;;;15.43;;
65896;SDS011;52677;50.898;10.854;2024-02-28T01:36:23;30.88;;;13.60;;
65896;SDS011;52677;50.898;10.854;2024-02-28T01:38:24;29.00;;;13.32;;
65896;SDS011;52677;50.898;10.854;2024-02-28T01:40:24;32.85;;;14.05;;
65896;SDS011;52677;50.898;10.854;2024-02-28T01:42:24;33.40;;;14.63;;
65896;SDS011;52677;50.898;10.854;2024-02-28T01:44:25;32.70;;;13.98;;
65896;SDS011;52677;50.898;10.854;2024-02-28T01:46:25;33.28;;;15.43;;
65896;SDS011;52677;50.898;10.854;2024-02-28T01:48:27;27.10;;;14.15;;
65896;SDS011;52677;50.898;10.854;2024-02-28T01:50:28;31.10;;;13.75;;
65896;SDS011;52677;50.898;10.854;2024-02-28T01:52:28;26.17;;;13.25;;
65896;SDS011;52677;50.898;10.854;2024-02-28T01:54:29;28.02;;;14.15;;
65896;SDS011;52677;50.898;10.854;2024-02-28T01:56:31;29.00;;;13.20;;
65896;SDS011;52677;50.898;10.854;2024-02-28T01:58:31;31.83;;;13.93;;
65896;SDS011;52677;50.898;10.854;2024-02-28T02:00:32;31.33;;;14.32;;
65896;SDS011;52677;50.898;10.854;2024-02-28T02:02:33;29.10;;;14.05;;
65896;SDS011;52677;50.898;10.854;2024-02-28T02:04:34;31.90;;;14.73;;
65896;SDS011;52677;50.898;10.854;2024-02-28T02:06:34;32.63;;;14.38;;
65896;SDS011;52677;50.898;10.854;2024-02-28T02:08:38;28.00;;;14.23;;
65896;SDS011;52677;50.898;10.854;2024-02-28T02:10:40;36.63;;;14.70;;
65896;SDS011;52677;50.898;10.854;2024-02-28T02:12:41;29.80;;;14.15;;
65896;SDS011;52677;50.898;10.854;2024-02-28T02:14:41;29.85;;;14.23;;
65896;SDS011;52677;50.898;10.854;2024-02-28T02:16:47;29.98;;;14.02;;
65896;SDS011;52677;50.898;10.854;2024-02-28T02:18:47;33.33;;;14.27;;
65896;SDS011;52677;50.898;10.854;2024-02-28T02:20:53;30.50;;;13.07;;
65896;SDS011;52677;50.898;10.854;2024-02-28T02:22:58;26.73;;;12.40;;
65896;SDS011;52677;50.898;10.854;2024-02-28T02:24:59;32.13;;;13.98;;
65896;SDS011;52677;50.898;10.854;2024-02-28T02:26:59;29.90;;;12.55;;
65896;SDS011;52677;50.898;10.854;2024-02-28T02:29:00;28.70;;;13.93;;
65896;SDS011;52677;50.898;10.854;2024-02-28T02:31:00;34.05;;;13.20;;
65896;SDS011;52677;50.898;10.854;2024-02-28T02:33:01;27.13;;;13.63;;
65896;SDS011;52677;50.898;10.854;2024-02-28T02:35:01;33.88;;;14.75;;
65896;SDS011;52677;50.898;10.854;2024-02-28T02:37:02;37.72;;;15.43;;
65896;SDS011;52677;50.898;10.854;2024-02-28T02:39:02;29.80;;;13.65;;
65896;SDS011;52677;50.898;10.854;2024-02-28T02:41:03;33.83;;;15.98;;
65896;SDS011;52677;50.898;10.854;2024-02-28T02:43:03;33.05;;;13.48;;
65896;SDS011;52677;50.898;10.854;2024-02-28T02:45:04;35.90;;;14.57;;
65896;SDS011;52677;50.898;10.854;2024-02-28T02:47:04;36.55;;;16.05;;
65896;SDS011;52677;50.898;10.854;2024-02-28T02:49:04;36.28;;;15.32;;
65896;SDS011;52677;50.898;10.854;2024-02-28T02:51:05;26.60;;;13.13;;
65896;SDS011;52677;50.898;10.854;2024-02-28T02:53:06;37.60;;;16.15;;
65896;SDS011;52677;50.898;10.854;2024-02-28T02:55:09;31.15;;;14.63;;
65896;SDS011;52677;50.898;10.854;2024-02-28T02:57:10;29.27;;;14.15;;
65896;SDS011;52677;50.898;10.854;2024-02-28T02:59:10;36.33;;;14.52;;
65896;SDS011;52677;50.898;10.854;2024-02-28T03:01:12;37.10;;;14.83;;
65896;SDS011;52677;50.898;10.854;2024-02-28T03:03:12;34.20;;;14.55;;
65896;SDS011;52677;50.898;10.854;2024-02-28T03:05:12;36.35;;;15.63;;
65896;SDS011;52677;50.898;10.854;2024-02-28T03:07:13;36.13;;;14.38;;
65896;SDS011;52677;50.898;10.854;2024-02-28T03:09:13;31.42;;;14.77;;
65896;SDS011;52677;50.898;10.854;2024-02-28T03:11:14;31.65;;;14.88;;
65896;SDS011;52677;50.898;10.854;2024-02-28T03:13:15;32.63;;;14.75;;
65896;SDS011;52677;50.898;10.854;2024-02-28T03:15:15;28.52;;;14.13;;
65896;SDS011;52677;50.898;10.854;2024-02-28T03:17:16;27.33;;;14.40;;
65896;SDS011;52677;50.898;10.854;2024-02-28T03:19:16;31.77;;;14.25;;
65896;SDS011;52677;50.898;10.854;2024-02-28T03:21:16;33.75;;;15.27;;
65896;SDS011;52677;50.898;10.854;2024-02-28T03:23:17;31.60;;;14.40;;
65896;SDS011;52677;50.898;10.854;2024-02-28T03:25:17;31.02;;;14.90;;
65896;SDS011;52677;50.898;10.854;2024-02-28T03:27:17;31.63;;;14.02;;
65896;SDS011;52677;50.898;10.854;2024-02-28T03:29:18;34.55;;;15.68;;
65896;SDS011;52677;50.898;10.854;2024-02-28T03:31:18;32.05;;;15.30;;
65896;SDS011;52677;50.898;10.854;2024-02-28T03:33:18;32.67;;;14.80;;
65896;SDS011;52677;50.898;10.854;2024-02-28T03:35:19;31.95;;;14.02;;
65896;SDS011;52677;50.898;10.854;2024-02-28T03:37:19;34.78;;;14.95;;
65896;SDS011;52677;50.898;10.854;2024-02-28T03:39:20;30.30;;;13.57;;
65896;SDS011;52677;50.898;10.854;2024-02-28T03:41:20;29.88;;;14.30;;
65896;SDS011;52677;50.898;10.854;2024-02-28T03:43:20;30.08;;;15.55;;
65896;SDS011;52677;50.898;10.854;2024-02-28T03:45:21;36.08;;;15.30;;
65896;SDS011;52677;50.898;10.854;2024-02-28T03:47:22;30.35;;;14.43;;
65896;SDS011;52677;50.898;10.854;2024-02-28T03:49:23;30.88;;;13.60;;
65896;SDS011;52677;50.898;10.854;2024-02-28T03:51:23;27.85;;;12.30;;
65896;SDS011;52677;50.898;10.854;2024-02-28T03:53:23;28.83;;;14.07;;
65896;SDS011;52677;50.898;10.854;2024-02-28T03:55:24;29.02;;;13.95;;
65896;SDS011;52677;50.898;10.854;2024-02-28T03:57:24;27.55;;;13.93;;
65896;SDS011;52677;50.898;10.854;2024-02-28T03:59:24;31.42;;;13.90;;
65896;SDS011;52677;50.898;10.854;2024-02-28T04:01:25;27.85;;;14.40;;
65896;SDS011;52677;50.898;10.854;2024-02-28T04:03:25;31.48;;;14.73;;
65896;SDS011;52677;50.898;10.854;2024-02-28T04:05:26;32.85;;;14.70;;
65896;SDS011;52677;50.898;10.854;2024-02-28T04:07:26;35.70;;;14.80;;
65896;SDS011;52677;50.898;10.854;2024-02-28T04:09:26;27.02;;;14.18;;
65896;SDS011;52677;50.898;10.854;2024-02-28T04:11:27;31.15;;;14.73;;
65896;SDS011;52677;50.898;10.854;2024-02-28T04:13:27;30.58;;;14.43;;
65896;SDS011;52677;50.898;10.854;2024-02-28T04:15:28;31.02;;;14.20;;
65896;SDS011;52677;50.898;10.854;2024-02-28T04:17:30;31.48;;;14.93;;
65896;SDS011;52677;50.898;10.854;2024-02-28T04:19:32;31.30;;;15.07;;
65896;SDS011;52677;50.898;10.854;2024-02-28T04:21:37;25.25;;;13.88;;
65896;SDS011;52677;50.898;10.854;2024-02-28T04:23:37;32.35;;;15.23;;
65896;SDS011;52677;50.898;10.854;2024-02-28T04:25:38;31.65;;;15.60;;
65896;SDS011;52677;50.898;10.854;2024-02-28T04:27:40;32.10;;;14.43;;
65896;SDS011;52677;50.898;10.854;2024-02-28T04:29:40;33.00;;;15.05;;
65896;SDS011;52677;50.898;10.854;2024-02-28T04:31:41;29.83;;;14.85;;
65896;SDS011;52677;50.898;10.854;2024-02-28T04:33:41;28.75;;;14.40;;
65896;SDS011;52677;50.898;10.854;2024-02-28T04:35:41;32.60;;;15.60;;
65896;SDS011;52677;50.898;10.854;2024-02-28T04:37:42;26.88;;;13.77;;
65896;SDS011;52677;50.898;10.854;2024-02-28T04:39:42;33.22;;;15.07;;
65896;SDS011;52677;50.898;10.854;2024-02-28T04:41:42;32.53;;;15.30;;
65896;SDS011;52677;50.898;10.854;2024-02-28T04:43:43;30.50;;;15.25;;
65896;SDS011;52677;50.898;10.854;2024-02-28T04:45:43;28.17;;;13.88;;
65896;SDS011;52677;50.898;10.854;2024-02-28T04:47:43;26.40;;;13.82;;
65896;SDS011;52677;50.898;10.854;2024-02-28T04:49:44;30.63;;;14.77;;
65896;SDS011;52677;50.898;10.854;2024-02-28T04:51:44;27.25;;;14.10;;
65896;SDS011;52677;50.898;10.854;2024-02-28T04:53:45;30.98;;;15.40;;
65896;SDS011;52677;50.898;10.854;2024-02-28T04:55:45;30.02;;;14.73;;
65896;SDS011;52677;50.898;10.854;2024-02-28T04:57:45;31.10;;;14.70;;
65896;SDS011;52677;50.898;10.854;2024-02-28T04:59:46;30.65;;;14.65;;
65896;SDS011;52677;50.898;10.854;2024-02-28T05:01:46;26.73;;;15.45;;
65896;SDS011;52677;50.898;10.854;2024-02-28T05:03:48;30.85;;;14.73;;
65896;SDS011;52677;50.898;10.854;2024-02-28T05:05:48;32.78;;;14.20;;
65896;SDS011;52677;50.898;10.854;2024-02-28T05:07:48;30.95;;;15.25;;
65896;SDS011;52677;50.898;10.854;2024-02-28T05:09:49;27.55;;;13.80;;
65896;SDS011;52677;50.898;10.854;2024-02-28T05:11:49;26.58;;;14.18;;
65896;SDS011;52677;50.898;10.854;2024-02-28T05:13:50;29.25;;;14.77;;
65896;SDS011;52677;50.898;10.854;2024-02-28T05:15:50;31.63;;;13.95;;
65896;SDS011;52677;50.898;10.854;2024-02-28T05:17:51;30.75;;;14.63;;
65896;SDS011;52677;50.898;10.854;2024-02-28T05:19:52;29.05;;;14.93;;
65896;SDS011;52677;50.898;10.854;2024-02-28T05:21:52;33.83;;;14.55;;
65896;SDS011;52677;50.898;10.854;2024-02-28T05:23:53;31.30;;;14.43;;
65896;SDS011;52677;50.898;10.854;2024-02-28T05:25:53;32.10;;;15.57;;
65896;SDS011;52677;50.898;10.854;2024-02-28T05:27:53;30.15;;;15.70;;
65896;SDS011;52677;50.898;10.854;2024-02-28T05:29:54;27.75;;;13.38;;
65896;SDS011;52677;50.898;10.854;2024-02-28T05:31:54;27.15;;;14.52;;
65896;SDS011;52677;50.898;10.854;2024-02-28T05:33:55;31.35;;;14.98;;
65896;SDS011;52677;50.898;10.854;2024-02-28T05:35:56;29.20;;;14.05;;
65896;SDS011;52677;50.898;10.854;2024-02-28T05:37:57;29.45;;;13.20;;
65896;SDS011;52677;50.898;10.854;2024-02-28T05:39:57;27.85;;;13.77;;
65896;SDS011;52677;50.898;10.854;2024-02-28T05:41:58;28.92;;;14.40;;
65896;SDS011;52677;50.898;10.854;2024-02-28T05:43:58;30.73;;;14.23;;
65896;SDS011;52677;50.898;10.854;2024-02-28T05:45:58;29.92;;;13.02;;
65896;SDS011;52677;50.898;10.854;2024-02-28T05:47:59;29.15;;;14.80;;
65896;SDS011;52677;50.898;10.854;2024-02-28T05:49:59;30.80;;;14.93;;
65896;SDS011;52677;50.898;10.854;2024-02-28T05:52:00;34.20;;;14.90;;
65896;SDS011;52677;50.898;10.854;2024-02-28T05:54:00;34.58;;;14.70;;
65896;SDS011;52677;50.898;10.854;2024-02-28T05:56:00;29.73;;;14.13;;
65896;SDS011;52677;50.898;10.854;2024-02-28T05:58:01;28.77;;;15.00;;
65896;SDS011;52677;50.898;10.854;2024-02-28T06:00:02;30.75;;;14.73;;
65896;SDS011;52677;50.898;10.854;2024-02-28T06:02:09;34.95;;;15.05;;
65896;SDS011;52677;50.898;10.854;2024-02-28T06:04:10;34.65;;;15.05;;
65896;SDS011;52677;50.898;10.854;2024-02-28T06:06:10;28.83;;;14.73;;
65896;SDS011;52677;50.898;10.854;2024-02-28T06:08:10;30.10;;;13.82;;
65896;SDS011;52677;50.898;10.854;2024-02-28T06:10:11;30.40;;;15.50;;
65896;SDS011;52677;50.898;10.854;2024-02-28T06:12:11;40.22;;;15.70;;
65896;SDS011;52677;50.898;10.854;2024-02-28T06:14:12;33.15;;;15.23;;
65896;SDS011;52677;50.898;10.854;2024-02-28T06:16:15;34.15;;;15.65;;
65896;SDS011;52677;50.898;10.854;2024-02-28T06:18:17;30.55;;;14.68;;
65896;SDS011;52677;50.898;10.854;2024-02-28T06:20:18;31.75;;;15.15;;
65896;SDS011;52677;50.898;10.854;2024-02-28T06:22:18;32.33;;;15.90;;
65896;SDS011;52677;50.898;10.854;2024-02-28T06:24:19;29.08;;;13.88;;
65896;SDS011;52677;50.898;10.854;2024-02-28T06:26:19;28.90;;;14.40;;
65896;SDS011;52677;50.898;10.854;2024-02-28T06:28:20;28.52;;;13.52;;
65896;SDS011;52677;50.898;10.854;2024-02-28T06:30:21;28.90;;;14.27;;
65896;SDS011;52677;50.898;10.854;2024-02-28T06:32:23;24.75;;;12.68;;
65896;SDS011;52677;50.898;10.854;2024-02-28T06:34:24;27.92;;;13.38;;
65896;SDS011;52677;50.898;10.854;2024-02-28T06:36:24;30.42;;;14.30;;
65896;SDS011;52677;50.898;10.854;2024-02-28T06:38:25;29.42;;;15.10;;
65896;SDS011;52677;50.898;10.854;2024-02-28T06:40:25;30.83;;;15.18;;
65896;SDS011;52677;50.898;10.854;2024-02-28T06:42:26;30.63;;;14.52;;
65896;SDS011;52677;50.898;10.854;2024-02-28T06:44:26;27.40;;;13.35;;
65896;SDS011;52677;50.898;10.854;2024-02-28T06:46:26;32.08;;;14.43;;
65896;SDS011;52677;50.898;10.854;2024-02-28T06:48:27;29.70;;;13.93;;
65896;SDS011;52677;50.898;10.854;2024-02-28T06:50:28;30.92;;;14.00;;
65896;SDS011;52677;50.898;10.854;2024-02-28T06:52:29;26.45;;;13.38;;
65896;SDS011;52677;50.898;10.854;2024-02-28T06:54:29;26.63;;;13.57;;
65896;SDS011;52677;50.898;10.854;2024-02-28T06:56:30;25.45;;;14.02;;
65896;SDS011;52677;50.898;10.854;2024-02-28T06:58:31;27.13;;;13.60;;
65896;SDS011;52677;50.898;10.854;2024-02-28T07:00:31;32.83;;;14.32;;
65896;SDS011;52677;50.898;10.854;2024-02-28T07:02:31;26.00;;;13.32;;
65896;SDS011;52677;50.898;10.854;2024-02-28T07:04:32;28.55;;;13.52;;
65896;SDS011;52677;50.898;10.854;2024-02-28T07:06:32;26.45;;;13.35;;
65896;SDS011;52677;50.898;10.854;2024-02-28T07:08:32;32.47;;;15.55;;
65896;SDS011;52677;50.898;10.854;2024-02-28T07:10:33;27.23;;;14.68;;
65896;SDS011;52677;50.898;10.854;2024-02-28T07:12:33;35.40;;;15.93;;
65896;SDS011;52677;50.898;10.854;2024-02-28T07:14:33;29.95;;;15.15;;
65896;SDS011;52677;50.898;10.854;2024-02-28T07:16:34;37.90;;;17.65;;
65896;SDS011;52677;50.898;10.854;2024-02-28T07:18:34;33.17;;;15.93;;
65896;SDS011;52677;50.898;10.854;2024-02-28T07:20:35;33.00;;;15.88;;
65896;SDS011;52677;50.898;10.854;2024-02-28T07:22:35;37.22;;;16.08;;
65896;SDS011;52677;50.898;10.854;2024-02-28T07:24:39;36.25;;;15.90;;
65896;SDS011;52677;50.898;10.854;2024-02-28T07:26:39;32.80;;;14.45;;
65896;SDS011;52677;50.898;10.854;2024-02-28T07:28:41;33.63;;;13.88;;
65896;SDS011;52677;50.898;10.854;2024-02-28T07:30:41;32.55;;;14.65;;
65896;SDS011;52677;50.898;10.854;2024-02-28T07:32:43;31.02;;;14.95;;
65896;SDS011;52677;50.898;10.854;2024-02-28T07:34:44;39.25;;;16.65;;
65896;SDS011;52677;50.898;10.854;2024-02-28T07:36:44;35.90;;;14.45;;
65896;SDS011;52677;50.898;10.854;2024-02-28T07:38:44;38.20;;;15.30;;
65896;SDS011;52677;50.898;10.854;2024-02-28T07:40:45;32.17;;;14.38;;
65896;SDS011;52677;50.898;10.854;2024-02-28T07:42:47;31.23;;;13.55;;
65896;SDS011;52677;50.898;10.854;2024-02-28T07:44:47;30.50;;;13.30;;
65896;SDS011;52677;50.898;10.854;2024-02-28T07:46:49;35.90;;;15.60;;
65896;SDS011;52677;50.898;10.854;2024-02-28T07:48:50;27.50;;;12.15;;
65896;SDS011;52677;50.898;10.854;2024-02-28T07:50:51;37.38;;;16.52;;
65896;SDS011;52677;50.898;10.854;2024-02-28T07:52:53;34.63;;;15.85;;
65896;SDS011;52677;50.898;10.854;2024-02-28T07:54:54;37.60;;;16.83;;
65896;SDS011;52677;50.898;10.854;2024-02-28T07:56:55;39.03;;;17.92;;
65896;SDS011;52677;50.898;10.854;2024-02-28T07:58:55;36.60;;;17.17;;
65896;SDS011;52677;50.898;10.854;2024-02-28T08:00:56;34.25;;;17.15;;
65896;SDS011;52677;50.898;10.854;2024-02-28T08:02:56;72.63;;;34.05;;
65896;SDS011;52677;50.898;10.854;2024-02-28T08:04:57;35.60;;;16.48;;
65896;SDS011;52677;50.898;10.854;2024-02-28T08:06:57;29.13;;;13.98;;
65896;SDS011;52677;50.898;10.854;2024-02-28T08:08:57;31.52;;;14.00;;
65896;SDS011;52677;50.898;10.854;2024-02-28T08:10:58;27.77;;;15.10;;
65896;SDS011;52677;50.898;10.854;2024-02-28T08:12:58;26.80;;;12.68;;
65896;SDS011;52677;50.898;10.854;2024-02-28T08:14:59;28.10;;;13.13;;
65896;SDS011;52677;50.898;10.854;2024-02-28T08:16:59;25.88;;;12.35;;
65896;SDS011;52677;50.898;10.854;2024-02-28T08:18:59;25.65;;;13.00;;
65896;SDS011;52677;50.898;10.854;2024-02-28T08:21:00;24.30;;;12.48;;
65896;SDS011;52677;50.898;10.854;2024-02-28T08:23:02;34.63;;;13.32;;
65896;SDS011;52677;50.898;10.854;2024-02-28T08:25:03;35.45;;;15.93;;
65896;SDS011;52677;50.898;10.854;2024-02-28T08:27:04;37.17;;;15.27;;
65896;SDS011;52677;50.898;10.854;2024-02-28T08:29:04;44.53;;;18.67;;
65896;SDS011;52677;50.898;10.854;2024-02-28T08:31:05;25.90;;;13.43;;
65896;SDS011;52677;50.898;10.854;2024-02-28T08:33:06;24.88;;;13.13;;
65896;SDS011;52677;50.898;10.854;2024-02-28T08:35:08;21.77;;;11.70;;
65896;SDS011;52677;50.898;10.854;2024-02-28T08:37:10;27.92;;;11.95;;
65896;SDS011;52677;50.898;10.854;2024-02-28T08:39:10;23.95;;;11.63;;
65896;SDS011;52677;50.898;10.854;2024-02-28T08:41:11;26.77;;;12.32;;
65896;SDS011;52677;50.898;10.854;2024-02-28T08:43:12;27.23;;;11.75;;
65896;SDS011;52677;50.898;10.854;2024-02-28T08:45:13;23.92;;;11.68;;
65896;SDS011;52677;50.898;10.854;2024-02-28T08:47:13;20.63;;;10.15;;
65896;SDS011;52677;50.898;10.854;2024-02-28T08:49:14;20.60;;;10.98;;
65896;SDS011;52677;50.898;10.854;2024-02-28T08:51:14;19.88;;;10.63;;
65896;SDS011;52677;50.898;10.854;2024-02-28T08:53:15;19.40;;;9.45;;
65896;SDS011;52677;50.898;10.854;2024-02-28T08:55:15;21.70;;;10.65;;
65896;SDS011;52677;50.898;10.854;2024-02-28T08:57:18;25.67;;;10.65;;
65896;SDS011;52677;50.898;10.854;2024-02-28T08:59:20;20.30;;;10.73;;
65896;SDS011;52677;50.898;10.854;2024-02-28T09:01:21;18.75;;;10.00;;
65896;SDS011;52677;50.898;10.854;2024-02-28T09:03:22;21.25;;;10.57;;
65896;SDS011;52677;50.898;10.854;2024-02-28T09:05:23;19.65;;;10.57;;
65896;SDS011;52677;50.898;10.854;2024-02-28T09:07:23;28.00;;;12.82;;
65896;SDS011;52677;50.898;10.854;2024-02-28T09:09:24;23.13;;;11.35;;
65896;SDS011;52677;50.898;10.854;2024-02-28T09:11:24;28.17;;;12.55;;
65896;SDS011;52677;50.898;10.854;2024-02-28T09:13:27;24.52;;;11.65;;
65896;SDS011;52677;50.898;10.854;2024-02-28T09:15:28;27.83;;;13.45;;
65896;SDS011;52677;50.898;10.854;2024-02-28T09:17:28;25.40;;;13.80;;
65896;SDS011;52677;50.898;10.854;2024-02-28T09:19:31;30.95;;;13.38;;
65896;SDS011;52677;50.898;10.854;2024-02-28T09:21:32;27.60;;;12.02;;
65896;SDS011;52677;50.898;10.854;2024-02-28T09:23:32;27.20;;;13.85;;
65896;SDS011;52677;50.898;10.854;2024-02-28T09:25:33;23.70;;;12.32;;
65896;SDS011;52677;50.898;10.854;2024-02-28T09:27:35;26.92;;;12.95;;
65896;SDS011;52677;50.898;10.854;2024-02-28T09:29:36;26.27;;;13.57;;
65896;SDS011;52677;50.898;10.854;2024-02-28T09:31:37;28.38;;;13.55;;
65896;SDS011;52677;50.898;10.854;2024-02-28T09:33:37;29.80;;;14.50;;
65896;SDS011;52677;50.898;10.854;2024-02-28T09:35:37;36.60;;;13.98;;
65896;SDS011;52677;50.898;10.854;2024-02-28T09:37:38;27.90;;;14.13;;
65896;SDS011;52677;50.898;10.854;2024-02-28T09:39:38;28.50;;;13.27;;
65896;SDS011;52677;50.898;10.854;2024-02-28T09:41:40;28.88;;;14.00;;
65896;SDS011;52677;50.898;10.854;2024-02-28T09:43:41;32.45;;;14.73;;
65896;SDS011;52677;50.898;10.854;2024-02-28T09:45:42;29.55;;;13.20;;
65896;SDS011;52677;50.898;10.854;2024-02-28T09:47:42;28.20;;;13.70;;
65896;SDS011;52677;50.898;10.854;2024-02-28T09:49:43;27.00;;;13.77;;
65896;SDS011;52677;50.898;10.854;2024-02-28T09:51:45;32.50;;;14.05;;
65896;SDS011;52677;50.898;10.854;2024-02-28T09:53:50;30.52;;;14.05;;
65896;SDS011;52677;50.898;10.854;2024-02-28T09:55:51;28.60;;;14.07;;
65896;SDS011;52677;50.898;10.854;2024-02-28T09:57:52;30.20;;;14.05;;
65896;SDS011;52677;50.898;10.854;2024-02-28T09:59:53;29.90;;;14.85;;
65896;SDS011;52677;50.898;10.854;2024-02-28T10:01:56;28.67;;;14.07;;
65896;SDS011;52677;50.898;10.854;2024-02-28T10:03:57;27.75;;;14.20;;
65896;SDS011;52677;50.898;10.854;2024-02-28T10:06:00;32.85;;;16.48;;
65896;SDS011;52677;50.898;10.854;2024-02-28T10:08:00;35.28;;;15.63;;
65896;SDS011;52677;50.898;10.854;2024-02-28T10:10:01;26.95;;;13.75;;
65896;SDS011;52677;50.898;10.854;2024-02-28T10:12:02;26.65;;;14.02;;
65896;SDS011;52677;50.898;10.854;2024-02-28T10:14:03;28.02;;;13.35;;
65896;SDS011;52677;50.898;10.854;2024-02-28T10:16:06;26.75;;;14.52;;
65896;SDS011;52677;50.898;10.854;2024-02-28T10:18:06;30.15;;;14.40;;
65896;SDS011;52677;50.898;10.854;2024-02-28T10:20:07;32.38;;;14.93;;
65896;SDS011;52677;50.898;10.854;2024-02-28T10:22:09;28.35;;;13.50;;
65896;SDS011;52677;50.898;10.854;2024-02-28T10:24:11;26.30;;;14.25;;
65896;SDS011;52677;50.898;10.854;2024-02-28T10:26:13;28.02;;;13.63;;
65896;SDS011;52677;50.898;10.854;2024-02-28T10:28:14;26.50;;;13.32;;
65896;SDS011;52677;50.898;10.854;2024-02-28T10:30:15;19.65;;;11.00;;
65896;SDS011;52677;50.898;10.854;2024-02-28T10:32:17;19.70;;;10.27;;
65896;SDS011;52677;50.898;10.854;2024-02-28T10:34:17;19.73;;;9.77;;
65896;SDS011;52677;50.898;10.854;2024-02-28T10:36:18;21.38;;;9.68;;
65896;SDS011;52677;50.898;10.854;2024-02-28T10:38:19;21.75;;;10.57;;
65896;SDS011;52677;50.898;10.854;2024-02-28T10:40:21;20.65;;;10.30;;
65896;SDS011;52677;50.898;10.854;2024-02-28T10:42:22;23.40;;;12.73;;
65896;SDS011;52677;50.898;10.854;2024-02-28T10:44:27;21.85;;;11.38;;
65896;SDS011;52677;50.898;10.854;2024-02-28T10:46:28;21.55;;;10.20;;
65896;SDS011;52677;50.898;10.854;2024-02-28T10:48:29;23.63;;;11.88;;
65896;SDS011;52677;50.898;10.854;2024-02-28T10:50:29;25.13;;;12.43;;
65896;SDS011;52677;50.898;10.854;2024-02-28T10:52:29;26.48;;;12.23;;
65896;SDS011;52677;50.898;10.854;2024-02-28T10:54:33;22.67;;;12.30;;
65896;SDS011;52677;50.898;10.854;2024-02-28T10:56:39;25.27;;;12.50;;
65896;SDS011;52677;50.898;10.854;2024-02-28T10:58:45;25.50;;;12.02;;
65896;SDS011;52677;50.898;10.854;2024-02-28T11:00:51;23.98;;;11.60;;
65896;SDS011;52677;50.898;10.854;2024-02-28T11:02:52;24.27;;;12.65;;
65896;SDS011;52677;50.898;10.854;2024-02-28T11:04:53;23.10;;;11.32;;
65896;SDS011;52677;50.898;10.854;2024-02-28T11:06:54;25.15;;;11.38;;
65896;SDS011;52677;50.898;10.854;2024-02-28T11:08:55;21.92;;;12.45;;
65896;SDS011;52677;50.898;10.854;2024-02-28T11:10:57;25.00;;;12.02;;
65896;SDS011;52677;50.898;10.854;2024-02-28T11:12:58;21.00;;;10.20;;
65896;SDS011;52677;50.898;10.854;2024-02-28T11:14:59;25.98;;;11.85;;
65896;SDS011;52677;50.898;10.854;2024-02-28T11:17:05;20.20;;;10.73;;
65896;SDS011;52677;50.898;10.854;2024-02-28T11:19:05;19.35;;;9.82;;
65896;SDS011;52677;50.898;10.854;2024-02-28T11:21:14;19.75;;;9.93;;
65896;SDS011;52677;50.898;10.854;2024-02-28T11:23:17;21.15;;;10.18;;
65896;SDS011;52677;50.898;10.854;2024-02-28T11:25:17;18.23;;;9.90;;
65896;SDS011;52677;50.898;10.854;2024-02-28T11:27:18;19.25;;;9.63;;
65896;SDS011;52677;50.898;10.854;2024-02-28T11:29:25;16.75;;;8.95;;
65896;SDS011;52677;50.898;10.854;2024-02-28T11:31:27;21.58;;;10.02;;
65896;SDS011;52677;50.898;10.854;2024-02-28T11:33:27;14.90;;;8.05;;
65896;SDS011;52677;50.898;10.854;2024-02-28T11:35:28;13.95;;;7.80;;
65896;SDS011;52677;50.898;10.854;2024-02-28T11:37:28;16.35;;;8.25;;